sensor_id;sensor_type;location;lat;lon;timestamp;temperature;humidity
44823;DHT22;51097;51.984;5.650;2023-06-14T00:01:26;21.80;60.20
44823;DHT22;51097;51.984;5.650;2023-06-14T00:03:53;21.70;60.00
44823;DHT22;51097;51.984;5.650;2023-06-14T00:06:19;21.80;59.90
44823;DHT22;51097;51.984;5.650;2023-06-14T00:08:44;21.80;60.00
44823;DHT22;51097;51.984;5.650;2023-06-14T00:11:10;21.80;59.70
44823;DHT22;51097;51.984;5.650;2023-06-14T00:13:36;21.70;60.20
44823;DHT22;51097;51.984;5.650;2023-06-14T00:16:02;21.80;60.00
44823;DHT22;51097;51.984;5.650;2023-06-14T00:18:29;21.80;59.90
44823;DHT22;51097;51.984;5.650;2023-06-14T00:20:55;21.70;60.10
44823;DHT22;51097;51.984;5.650;2023-06-14T00:23:21;21.70;60.50
44823;DHT22;51097;51.984;5.650;2023-06-14T00:25:47;21.70;60.70
44823;DHT22;51097;51.984;5.650;2023-06-14T00:28:12;21.60;60.30
44823;DHT22;51097;51.984;5.650;2023-06-14T00:30:38;21.60;61.10
44823;DHT22;51097;51.984;5.650;2023-06-14T00:33:03;21.50;61.00
44823;DHT22;51097;51.984;5.650;2023-06-14T00:35:29;21.50;60.90
44823;DHT22;51097;51.984;5.650;2023-06-14T00:37:55;21.50;61.50
44823;DHT22;51097;51.984;5.650;2023-06-14T00:40:21;21.40;60.90
44823;DHT22;51097;51.984;5.650;2023-06-14T00:42:47;21.40;60.80
44823;DHT22;51097;51.984;5.650;2023-06-14T00:45:13;21.50;60.80
44823;DHT22;51097;51.984;5.650;2023-06-14T00:47:41;21.40;61.40
44823;DHT22;51097;51.984;5.650;2023-06-14T00:50:08;21.50;61.40
44823;DHT22;51097;51.984;5.650;2023-06-14T00:52:34;21.40;61.50
44823;DHT22;51097;51.984;5.650;2023-06-14T00:55:01;21.40;61.50
44823;DHT22;51097;51.984;5.650;2023-06-14T00:57:27;21.40;61.70
44823;DHT22;51097;51.984;5.650;2023-06-14T00:59:52;21.40;61.90
44823;DHT22;51097;51.984;5.650;2023-06-14T01:02:19;21.40;62.10
44823;DHT22;51097;51.984;5.650;2023-06-14T01:04:47;21.30;62.30
44823;DHT22;51097;51.984;5.650;2023-06-14T01:07:32;21.30;61.80
44823;DHT22;51097;51.984;5.650;2023-06-14T01:12:49;21.30;62.30
44823;DHT22;51097;51.984;5.650;2023-06-14T01:15:16;21.20;62.20
44823;DHT22;51097;51.984;5.650;2023-06-14T01:17:44;21.10;61.80
44823;DHT22;51097;51.984;5.650;2023-06-14T01:20:15;21.10;62.70
44823;DHT22;51097;51.984;5.650;2023-06-14T01:22:53;21.00;62.40
44823;DHT22;51097;51.984;5.650;2023-06-14T01:25:19;21.10;62.60
44823;DHT22;51097;51.984;5.650;2023-06-14T01:28:02;21.00;62.30
44823;DHT22;51097;51.984;5.650;2023-06-14T01:30:29;21.00;62.60
44823;DHT22;51097;51.984;5.650;2023-06-14T01:32:55;21.00;62.80
44823;DHT22;51097;51.984;5.650;2023-06-14T01:35:22;20.90;62.70
44823;DHT22;51097;51.984;5.650;2023-06-14T01:37:49;20.90;62.60
44823;DHT22;51097;51.984;5.650;2023-06-14T01:40:15;20.90;62.70
44823;DHT22;51097;51.984;5.650;2023-06-14T01:42:43;20.70;63.10
44823;DHT22;51097;51.984;5.650;2023-06-14T01:45:11;20.80;62.60
44823;DHT22;51097;51.984;5.650;2023-06-14T01:47:37;20.80;63.10
44823;DHT22;51097;51.984;5.650;2023-06-14T01:50:03;20.70;63.00
44823;DHT22;51097;51.984;5.650;2023-06-14T01:52:29;20.70;63.40
44823;DHT22;51097;51.984;5.650;2023-06-14T01:54:55;20.80;63.30
44823;DHT22;51097;51.984;5.650;2023-06-14T01:57:22;20.80;63.40
44823;DHT22;51097;51.984;5.650;2023-06-14T01:59:48;20.60;63.90
44823;DHT22;51097;51.984;5.650;2023-06-14T02:02:14;20.60;63.80
44823;DHT22;51097;51.984;5.650;2023-06-14T02:04:43;20.40;63.80
44823;DHT22;51097;51.984;5.650;2023-06-14T02:07:08;20.60;63.90
44823;DHT22;51097;51.984;5.650;2023-06-14T02:09:34;20.60;63.50
44823;DHT22;51097;51.984;5.650;2023-06-14T02:12:01;20.60;63.80
44823;DHT22;51097;51.984;5.650;2023-06-14T02:14:27;20.60;63.50
44823;DHT22;51097;51.984;5.650;2023-06-14T02:16:53;20.50;63.70
44823;DHT22;51097;51.984;5.650;2023-06-14T02:19:19;20.50;63.70
44823;DHT22;51097;51.984;5.650;2023-06-14T02:21:45;20.40;63.60
44823;DHT22;51097;51.984;5.650;2023-06-14T02:24:11;20.50;63.90
44823;DHT22;51097;51.984;5.650;2023-06-14T02:26:36;20.40;63.80
44823;DHT22;51097;51.984;5.650;2023-06-14T02:29:08;20.40;64.20
44823;DHT22;51097;51.984;5.650;2023-06-14T02:31:36;20.40;64.60
44823;DHT22;51097;51.984;5.650;2023-06-14T02:34:02;20.30;64.60
44823;DHT22;51097;51.984;5.650;2023-06-14T02:36:27;20.30;64.80
44823;DHT22;51097;51.984;5.650;2023-06-14T02:38:55;20.30;65.00
44823;DHT22;51097;51.984;5.650;2023-06-14T02:41:23;20.10;64.80
44823;DHT22;51097;51.984;5.650;2023-06-14T02:43:49;20.20;64.90
44823;DHT22;51097;51.984;5.650;2023-06-14T02:46:14;20.10;65.50
44823;DHT22;51097;51.984;5.650;2023-06-14T02:48:40;20.10;65.30
44823;DHT22;51097;51.984;5.650;2023-06-14T02:51:06;19.90;65.50
44823;DHT22;51097;51.984;5.650;2023-06-14T02:53:32;20.10;65.50
44823;DHT22;51097;51.984;5.650;2023-06-14T02:55:57;20.00;65.60
44823;DHT22;51097;51.984;5.650;2023-06-14T02:58:23;19.90;66.00
44823;DHT22;51097;51.984;5.650;2023-06-14T03:00:50;20.00;66.30
44823;DHT22;51097;51.984;5.650;2023-06-14T03:03:17;19.90;66.30
44823;DHT22;51097;51.984;5.650;2023-06-14T03:05:45;19.80;66.00
44823;DHT22;51097;51.984;5.650;2023-06-14T03:08:13;19.80;65.70
44823;DHT22;51097;51.984;5.650;2023-06-14T03:10:45;19.80;66.30
44823;DHT22;51097;51.984;5.650;2023-06-14T03:13:11;19.80;66.10
44823;DHT22;51097;51.984;5.650;2023-06-14T03:15:37;19.70;66.40
44823;DHT22;51097;51.984;5.650;2023-06-14T03:18:04;19.70;66.90
44823;DHT22;51097;51.984;5.650;2023-06-14T03:20:29;19.70;66.40
44823;DHT22;51097;51.984;5.650;2023-06-14T03:23:01;19.60;67.20
44823;DHT22;51097;51.984;5.650;2023-06-14T03:25:30;19.60;67.00
44823;DHT22;51097;51.984;5.650;2023-06-14T03:27:57;19.60;67.00
44823;DHT22;51097;51.984;5.650;2023-06-14T03:30:22;19.50;67.30
44823;DHT22;51097;51.984;5.650;2023-06-14T03:32:51;19.50;67.10
44823;DHT22;51097;51.984;5.650;2023-06-14T03:35:18;19.40;68.30
44823;DHT22;51097;51.984;5.650;2023-06-14T03:37:45;19.40;67.60
44823;DHT22;51097;51.984;5.650;2023-06-14T03:40:12;19.40;67.80
44823;DHT22;51097;51.984;5.650;2023-06-14T03:42:37;19.30;68.40
44823;DHT22;51097;51.984;5.650;2023-06-14T03:45:04;19.30;68.40
44823;DHT22;51097;51.984;5.650;2023-06-14T03:47:29;19.40;68.40
44823;DHT22;51097;51.984;5.650;2023-06-14T03:49:55;19.30;68.70
44823;DHT22;51097;51.984;5.650;2023-06-14T03:52:20;19.30;68.60
44823;DHT22;51097;51.984;5.650;2023-06-14T03:54:47;19.30;69.60
44823;DHT22;51097;51.984;5.650;2023-06-14T03:57:14;19.30;69.00
44823;DHT22;51097;51.984;5.650;2023-06-14T03:59:39;19.20;69.30
44823;DHT22;51097;51.984;5.650;2023-06-14T04:02:06;19.30;69.30
44823;DHT22;51097;51.984;5.650;2023-06-14T04:04:32;19.20;69.50
44823;DHT22;51097;51.984;5.650;2023-06-14T04:06:58;19.30;70.20
44823;DHT22;51097;51.984;5.650;2023-06-14T04:09:29;19.20;69.30
44823;DHT22;51097;51.984;5.650;2023-06-14T04:11:55;19.20;70.70
44823;DHT22;51097;51.984;5.650;2023-06-14T04:14:21;19.10;70.40
44823;DHT22;51097;51.984;5.650;2023-06-14T04:16:48;19.20;71.80
44823;DHT22;51097;51.984;5.650;2023-06-14T04:19:15;19.20;70.60
44823;DHT22;51097;51.984;5.650;2023-06-14T04:21:41;19.20;70.90
44823;DHT22;51097;51.984;5.650;2023-06-14T04:24:06;19.30;70.80
44823;DHT22;51097;51.984;5.650;2023-06-14T04:26:32;19.20;70.90
44823;DHT22;51097;51.984;5.650;2023-06-14T04:28:59;19.30;71.10
44823;DHT22;51097;51.984;5.650;2023-06-14T04:31:31;19.30;71.60
44823;DHT22;51097;51.984;5.650;2023-06-14T04:33:59;19.40;70.60
44823;DHT22;51097;51.984;5.650;2023-06-14T04:36:25;19.20;71.30
44823;DHT22;51097;51.984;5.650;2023-06-14T04:38:52;19.20;72.00
44823;DHT22;51097;51.984;5.650;2023-06-14T04:41:21;19.20;72.80
44823;DHT22;51097;51.984;5.650;2023-06-14T04:43:48;19.30;72.50
44823;DHT22;51097;51.984;5.650;2023-06-14T04:46:14;19.30;72.40
44823;DHT22;51097;51.984;5.650;2023-06-14T04:48:41;19.40;71.80
44823;DHT22;51097;51.984;5.650;2023-06-14T04:51:11;19.40;72.40
44823;DHT22;51097;51.984;5.650;2023-06-14T04:53:36;19.60;72.10
44823;DHT22;51097;51.984;5.650;2023-06-14T04:56:02;19.40;72.10
44823;DHT22;51097;51.984;5.650;2023-06-14T04:58:29;19.50;72.20
44823;DHT22;51097;51.984;5.650;2023-06-14T05:00:55;19.50;71.90
44823;DHT22;51097;51.984;5.650;2023-06-14T05:03:25;19.50;72.30
44823;DHT22;51097;51.984;5.650;2023-06-14T05:05:50;19.60;72.70
44823;DHT22;51097;51.984;5.650;2023-06-14T05:08:19;19.60;72.10
44823;DHT22;51097;51.984;5.650;2023-06-14T05:10:45;19.70;72.10
44823;DHT22;51097;51.984;5.650;2023-06-14T05:13:10;19.70;72.40
44823;DHT22;51097;51.984;5.650;2023-06-14T05:15:36;19.70;72.50
44823;DHT22;51097;51.984;5.650;2023-06-14T05:18:02;19.80;72.30
44823;DHT22;51097;51.984;5.650;2023-06-14T05:20:28;19.80;72.50
44823;DHT22;51097;51.984;5.650;2023-06-14T05:22:54;19.90;72.10
44823;DHT22;51097;51.984;5.650;2023-06-14T05:25:20;19.90;71.70
44823;DHT22;51097;51.984;5.650;2023-06-14T05:27:46;20.00;72.00
44823;DHT22;51097;51.984;5.650;2023-06-14T05:30:13;20.10;72.60
44823;DHT22;51097;51.984;5.650;2023-06-14T05:32:39;20.20;71.20
44823;DHT22;51097;51.984;5.650;2023-06-14T05:35:05;20.10;71.70
44823;DHT22;51097;51.984;5.650;2023-06-14T05:37:31;20.30;71.00
44823;DHT22;51097;51.984;5.650;2023-06-14T05:39:57;20.40;71.20
44823;DHT22;51097;51.984;5.650;2023-06-14T05:42:22;20.50;71.30
44823;DHT22;51097;51.984;5.650;2023-06-14T05:44:48;20.40;70.80
44823;DHT22;51097;51.984;5.650;2023-06-14T05:47:13;20.50;70.70
44823;DHT22;51097;51.984;5.650;2023-06-14T05:49:39;20.60;70.30
44823;DHT22;51097;51.984;5.650;2023-06-14T05:52:05;20.60;70.40
44823;DHT22;51097;51.984;5.650;2023-06-14T05:54:31;20.80;70.20
44823;DHT22;51097;51.984;5.650;2023-06-14T05:56:57;20.80;69.80
44823;DHT22;51097;51.984;5.650;2023-06-14T05:59:27;20.90;69.00
44823;DHT22;51097;51.984;5.650;2023-06-14T06:01:52;21.00;69.50
44823;DHT22;51097;51.984;5.650;2023-06-14T06:04:18;21.10;69.00
44823;DHT22;51097;51.984;5.650;2023-06-14T06:06:44;21.10;69.00
44823;DHT22;51097;51.984;5.650;2023-06-14T06:09:10;21.10;69.40
44823;DHT22;51097;51.984;5.650;2023-06-14T06:11:36;21.30;68.70
44823;DHT22;51097;51.984;5.650;2023-06-14T06:14:01;21.40;68.50
44823;DHT22;51097;51.984;5.650;2023-06-14T06:16:27;21.50;68.20
44823;DHT22;51097;51.984;5.650;2023-06-14T06:18:53;21.60;68.20
44823;DHT22;51097;51.984;5.650;2023-06-14T06:21:18;21.60;68.40
44823;DHT22;51097;51.984;5.650;2023-06-14T06:23:44;21.70;67.60
44823;DHT22;51097;51.984;5.650;2023-06-14T06:26:09;21.90;67.60
44823;DHT22;51097;51.984;5.650;2023-06-14T06:28:35;22.00;67.10
44823;DHT22;51097;51.984;5.650;2023-06-14T06:31:00;22.20;66.60
44823;DHT22;51097;51.984;5.650;2023-06-14T06:33:26;22.20;66.40
44823;DHT22;51097;51.984;5.650;2023-06-14T06:35:52;22.30;65.70
44823;DHT22;51097;51.984;5.650;2023-06-14T06:38:17;22.40;65.80
44823;DHT22;51097;51.984;5.650;2023-06-14T06:40:44;22.60;66.10
44823;DHT22;51097;51.984;5.650;2023-06-14T06:43:10;22.60;65.70
44823;DHT22;51097;51.984;5.650;2023-06-14T06:45:39;22.50;65.00
44823;DHT22;51097;51.984;5.650;2023-06-14T06:48:05;22.70;65.00
44823;DHT22;51097;51.984;5.650;2023-06-14T06:50:30;22.80;65.00
44823;DHT22;51097;51.984;5.650;2023-06-14T06:52:56;23.10;65.30
44823;DHT22;51097;51.984;5.650;2023-06-14T06:55:21;23.20;64.30
44823;DHT22;51097;51.984;5.650;2023-06-14T06:57:47;23.30;64.00
44823;DHT22;51097;51.984;5.650;2023-06-14T07:00:13;23.40;63.70
44823;DHT22;51097;51.984;5.650;2023-06-14T07:02:39;23.60;63.00
44823;DHT22;51097;51.984;5.650;2023-06-14T07:05:04;23.60;63.40
44823;DHT22;51097;51.984;5.650;2023-06-14T07:07:31;23.70;64.00
44823;DHT22;51097;51.984;5.650;2023-06-14T07:09:56;23.90;63.10
44823;DHT22;51097;51.984;5.650;2023-06-14T07:12:23;24.10;62.50
44823;DHT22;51097;51.984;5.650;2023-06-14T07:14:48;24.20;62.90
44823;DHT22;51097;51.984;5.650;2023-06-14T07:17:14;24.40;62.20
44823;DHT22;51097;51.984;5.650;2023-06-14T07:19:40;24.60;62.00
44823;DHT22;51097;51.984;5.650;2023-06-14T07:22:05;24.80;61.10
44823;DHT22;51097;51.984;5.650;2023-06-14T07:24:31;25.10;60.90
44823;DHT22;51097;51.984;5.650;2023-06-14T07:26:56;25.20;60.10
44823;DHT22;51097;51.984;5.650;2023-06-14T07:29:22;25.40;59.50
44823;DHT22;51097;51.984;5.650;2023-06-14T07:31:47;25.60;59.90
44823;DHT22;51097;51.984;5.650;2023-06-14T07:34:13;25.90;58.90
44823;DHT22;51097;51.984;5.650;2023-06-14T07:36:39;26.10;58.50
44823;DHT22;51097;51.984;5.650;2023-06-14T07:39:04;26.30;58.30
44823;DHT22;51097;51.984;5.650;2023-06-14T07:41:32;26.40;58.30
44823;DHT22;51097;51.984;5.650;2023-06-14T07:43:58;26.60;58.10
44823;DHT22;51097;51.984;5.650;2023-06-14T07:46:23;26.80;57.90
44823;DHT22;51097;51.984;5.650;2023-06-14T07:48:49;27.00;57.50
44823;DHT22;51097;51.984;5.650;2023-06-14T07:51:15;27.20;57.70
44823;DHT22;51097;51.984;5.650;2023-06-14T07:53:40;27.30;56.40
44823;DHT22;51097;51.984;5.650;2023-06-14T07:56:07;27.40;55.80
44823;DHT22;51097;51.984;5.650;2023-06-14T07:58:32;27.60;54.90
44823;DHT22;51097;51.984;5.650;2023-06-14T08:00:58;28.00;55.70
44823;DHT22;51097;51.984;5.650;2023-06-14T08:03:24;28.30;55.80
44823;DHT22;51097;51.984;5.650;2023-06-14T08:05:50;28.40;55.40
44823;DHT22;51097;51.984;5.650;2023-06-14T08:08:16;28.50;54.80
44823;DHT22;51097;51.984;5.650;2023-06-14T08:10:42;28.60;53.80
44823;DHT22;51097;51.984;5.650;2023-06-14T08:13:07;28.60;54.30
44823;DHT22;51097;51.984;5.650;2023-06-14T08:15:34;28.70;53.30
44823;DHT22;51097;51.984;5.650;2023-06-14T08:18:00;28.80;53.80
44823;DHT22;51097;51.984;5.650;2023-06-14T08:20:26;29.00;53.90
44823;DHT22;51097;51.984;5.650;2023-06-14T08:22:52;29.20;53.50
44823;DHT22;51097;51.984;5.650;2023-06-14T08:25:22;29.20;53.30
44823;DHT22;51097;51.984;5.650;2023-06-14T08:27:47;29.50;54.40
44823;DHT22;51097;51.984;5.650;2023-06-14T08:30:13;29.80;53.80
44823;DHT22;51097;51.984;5.650;2023-06-14T08:32:39;30.10;53.90
44823;DHT22;51097;51.984;5.650;2023-06-14T08:35:05;30.40;53.60
44823;DHT22;51097;51.984;5.650;2023-06-14T08:37:32;30.60;52.60
44823;DHT22;51097;51.984;5.650;2023-06-14T08:40:00;30.90;52.60
44823;DHT22;51097;51.984;5.650;2023-06-14T08:42:26;31.20;51.30
44823;DHT22;51097;51.984;5.650;2023-06-14T08:44:52;31.30;51.10
44823;DHT22;51097;51.984;5.650;2023-06-14T08:47:17;31.60;50.80
44823;DHT22;51097;51.984;5.650;2023-06-14T08:49:46;31.60;50.60
44823;DHT22;51097;51.984;5.650;2023-06-14T08:52:13;31.70;50.40
44823;DHT22;51097;51.984;5.650;2023-06-14T08:54:44;31.90;50.50
44823;DHT22;51097;51.984;5.650;2023-06-14T08:57:14;32.10;50.40
44823;DHT22;51097;51.984;5.650;2023-06-14T08:59:47;32.30;49.20
44823;DHT22;51097;51.984;5.650;2023-06-14T09:02:17;32.50;49.10
44823;DHT22;51097;51.984;5.650;2023-06-14T09:04:47;32.60;47.60
44823;DHT22;51097;51.984;5.650;2023-06-14T09:07:14;32.70;48.00
44823;DHT22;51097;51.984;5.650;2023-06-14T09:09:40;32.80;48.20
44823;DHT22;51097;51.984;5.650;2023-06-14T09:12:09;32.90;47.40
44823;DHT22;51097;51.984;5.650;2023-06-14T09:14:36;33.00;47.90
44823;DHT22;51097;51.984;5.650;2023-06-14T09:17:05;33.30;47.10
44823;DHT22;51097;51.984;5.650;2023-06-14T09:19:31;33.30;47.30
44823;DHT22;51097;51.984;5.650;2023-06-14T09:21:56;33.20;46.90
44823;DHT22;51097;51.984;5.650;2023-06-14T09:24:24;33.40;46.70
44823;DHT22;51097;51.984;5.650;2023-06-14T09:26:51;33.30;45.60
44823;DHT22;51097;51.984;5.650;2023-06-14T09:29:17;33.40;46.80
44823;DHT22;51097;51.984;5.650;2023-06-14T09:31:45;33.50;47.30
44823;DHT22;51097;51.984;5.650;2023-06-14T09:34:11;33.80;45.80
44823;DHT22;51097;51.984;5.650;2023-06-14T09:36:39;34.00;45.90
44823;DHT22;51097;51.984;5.650;2023-06-14T09:39:05;34.20;45.90
44823;DHT22;51097;51.984;5.650;2023-06-14T09:41:33;34.10;46.20
44823;DHT22;51097;51.984;5.650;2023-06-14T09:44:00;34.20;45.60
44823;DHT22;51097;51.984;5.650;2023-06-14T09:46:27;34.40;45.00
44823;DHT22;51097;51.984;5.650;2023-06-14T09:48:53;34.60;46.20
44823;DHT22;51097;51.984;5.650;2023-06-14T09:51:19;34.80;46.70
44823;DHT22;51097;51.984;5.650;2023-06-14T09:53:47;35.00;46.90
44823;DHT22;51097;51.984;5.650;2023-06-14T09:56:20;35.30;46.00
44823;DHT22;51097;51.984;5.650;2023-06-14T09:58:48;35.40;46.20
44823;DHT22;51097;51.984;5.650;2023-06-14T10:01:16;35.60;46.40
44823;DHT22;51097;51.984;5.650;2023-06-14T10:03:44;35.80;45.20
44823;DHT22;51097;51.984;5.650;2023-06-14T10:06:11;36.00;45.30
44823;DHT22;51097;51.984;5.650;2023-06-14T10:08:37;36.00;46.00
44823;DHT22;51097;51.984;5.650;2023-06-14T10:11:05;36.10;46.40
44823;DHT22;51097;51.984;5.650;2023-06-14T10:13:32;36.30;46.60
44823;DHT22;51097;51.984;5.650;2023-06-14T10:16:17;36.30;46.00
44823;DHT22;51097;51.984;5.650;2023-06-14T10:25:01;36.40;45.20
44823;DHT22;51097;51.984;5.650;2023-06-14T10:27:27;36.20;44.40
44823;DHT22;51097;51.984;5.650;2023-06-14T10:32:18;36.30;44.90
44823;DHT22;51097;51.984;5.650;2023-06-14T10:34:44;36.40;44.90
44823;DHT22;51097;51.984;5.650;2023-06-14T10:37:14;36.60;44.70
44823;DHT22;51097;51.984;5.650;2023-06-14T10:39:42;36.70;45.90
44823;DHT22;51097;51.984;5.650;2023-06-14T10:42:09;37.00;45.30
44823;DHT22;51097;51.984;5.650;2023-06-14T10:44:50;37.10;45.20
44823;DHT22;51097;51.984;5.650;2023-06-14T10:47:34;37.00;45.60
44823;DHT22;51097;51.984;5.650;2023-06-14T10:50:05;37.00;44.40
44823;DHT22;51097;51.984;5.650;2023-06-14T10:52:34;36.70;44.30
44823;DHT22;51097;51.984;5.650;2023-06-14T10:57:44;36.60;45.40
44823;DHT22;51097;51.984;5.650;2023-06-14T11:00:20;36.50;44.50
44823;DHT22;51097;51.984;5.650;2023-06-14T11:05:57;36.50;46.70
44823;DHT22;51097;51.984;5.650;2023-06-14T11:11:18;36.90;45.30
44823;DHT22;51097;51.984;5.650;2023-06-14T11:13:46;37.00;44.40
44823;DHT22;51097;51.984;5.650;2023-06-14T11:16:16;37.20;43.30
44823;DHT22;51097;51.984;5.650;2023-06-14T11:18:42;37.30;44.10
44823;DHT22;51097;51.984;5.650;2023-06-14T11:21:09;37.50;42.90
44823;DHT22;51097;51.984;5.650;2023-06-14T11:23:35;37.60;43.90
44823;DHT22;51097;51.984;5.650;2023-06-14T11:26:01;37.70;43.00
44823;DHT22;51097;51.984;5.650;2023-06-14T11:28:40;37.90;45.40
44823;DHT22;51097;51.984;5.650;2023-06-14T11:31:06;38.10;44.00
44823;DHT22;51097;51.984;5.650;2023-06-14T11:33:33;38.20;42.00
44823;DHT22;51097;51.984;5.650;2023-06-14T11:36:02;38.00;43.10
44823;DHT22;51097;51.984;5.650;2023-06-14T11:38:27;37.90;43.30
44823;DHT22;51097;51.984;5.650;2023-06-14T11:40:53;38.10;45.00
44823;DHT22;51097;51.984;5.650;2023-06-14T11:43:18;38.10;42.90
44823;DHT22;51097;51.984;5.650;2023-06-14T11:45:48;38.20;42.00
44823;DHT22;51097;51.984;5.650;2023-06-14T11:48:14;38.20;42.50
44823;DHT22;51097;51.984;5.650;2023-06-14T11:50:40;38.30;42.60
44823;DHT22;51097;51.984;5.650;2023-06-14T11:53:06;38.40;42.40
44823;DHT22;51097;51.984;5.650;2023-06-14T11:55:39;38.50;43.00
44823;DHT22;51097;51.984;5.650;2023-06-14T11:58:06;38.70;42.60
44823;DHT22;51097;51.984;5.650;2023-06-14T12:00:32;38.90;43.00
44823;DHT22;51097;51.984;5.650;2023-06-14T12:02:57;39.00;43.30
44823;DHT22;51097;51.984;5.650;2023-06-14T12:05:24;39.00;43.40
44823;DHT22;51097;51.984;5.650;2023-06-14T12:07:50;39.00;43.20
44823;DHT22;51097;51.984;5.650;2023-06-14T12:10:18;39.30;43.90
44823;DHT22;51097;51.984;5.650;2023-06-14T12:12:44;39.40;42.10
44823;DHT22;51097;51.984;5.650;2023-06-14T12:15:10;39.40;42.60
44823;DHT22;51097;51.984;5.650;2023-06-14T12:17:39;39.40;41.40
44823;DHT22;51097;51.984;5.650;2023-06-14T12:20:11;39.60;42.40
44823;DHT22;51097;51.984;5.650;2023-06-14T12:22:46;39.60;43.40
44823;DHT22;51097;51.984;5.650;2023-06-14T12:25:30;39.70;42.70
44823;DHT22;51097;51.984;5.650;2023-06-14T12:28:04;39.80;42.40
44823;DHT22;51097;51.984;5.650;2023-06-14T12:30:30;39.60;43.10
44823;DHT22;51097;51.984;5.650;2023-06-14T12:32:55;39.70;43.70
44823;DHT22;51097;51.984;5.650;2023-06-14T12:35:21;39.90;44.20
44823;DHT22;51097;51.984;5.650;2023-06-14T12:37:47;39.90;43.30
44823;DHT22;51097;51.984;5.650;2023-06-14T12:40:13;40.10;43.40
44823;DHT22;51097;51.984;5.650;2023-06-14T12:42:40;40.20;42.10
44823;DHT22;51097;51.984;5.650;2023-06-14T12:45:06;40.40;41.30
44823;DHT22;51097;51.984;5.650;2023-06-14T12:47:31;40.20;42.50
44823;DHT22;51097;51.984;5.650;2023-06-14T12:49:57;40.30;42.30
44823;DHT22;51097;51.984;5.650;2023-06-14T12:52:23;40.10;40.90
44823;DHT22;51097;51.984;5.650;2023-06-14T12:54:50;40.00;41.20
44823;DHT22;51097;51.984;5.650;2023-06-14T12:57:15;39.80;41.30
44823;DHT22;51097;51.984;5.650;2023-06-14T12:59:41;39.70;41.80
44823;DHT22;51097;51.984;5.650;2023-06-14T13:02:17;39.70;41.60
44823;DHT22;51097;51.984;5.650;2023-06-14T13:04:43;39.70;41.30
44823;DHT22;51097;51.984;5.650;2023-06-14T13:07:09;39.70;40.60
44823;DHT22;51097;51.984;5.650;2023-06-14T13:09:36;39.20;40.70
44823;DHT22;51097;51.984;5.650;2023-06-14T13:12:01;39.10;41.00
44823;DHT22;51097;51.984;5.650;2023-06-14T13:14:27;39.10;41.50
44823;DHT22;51097;51.984;5.650;2023-06-14T13:16:53;39.00;41.80
44823;DHT22;51097;51.984;5.650;2023-06-14T13:19:18;38.90;42.90
44823;DHT22;51097;51.984;5.650;2023-06-14T13:21:44;39.10;41.80
44823;DHT22;51097;51.984;5.650;2023-06-14T13:24:09;39.20;43.00
44823;DHT22;51097;51.984;5.650;2023-06-14T13:26:35;39.50;42.60
44823;DHT22;51097;51.984;5.650;2023-06-14T13:29:01;39.90;42.60
44823;DHT22;51097;51.984;5.650;2023-06-14T13:31:26;40.10;42.60
44823;DHT22;51097;51.984;5.650;2023-06-14T13:33:52;40.10;42.50
44823;DHT22;51097;51.984;5.650;2023-06-14T13:36:17;40.10;41.30
44823;DHT22;51097;51.984;5.650;2023-06-14T13:38:43;40.00;41.00
44823;DHT22;51097;51.984;5.650;2023-06-14T13:41:08;39.70;40.50
44823;DHT22;51097;51.984;5.650;2023-06-14T13:43:34;39.30;41.10
44823;DHT22;51097;51.984;5.650;2023-06-14T13:46:00;39.30;42.30
44823;DHT22;51097;51.984;5.650;2023-06-14T13:48:25;39.40;43.50
44823;DHT22;51097;51.984;5.650;2023-06-14T13:50:51;39.60;43.30
44823;DHT22;51097;51.984;5.650;2023-06-14T13:53:17;39.80;42.30
44823;DHT22;51097;51.984;5.650;2023-06-14T13:55:42;40.10;41.60
44823;DHT22;51097;51.984;5.650;2023-06-14T13:58:08;40.10;41.80
44823;DHT22;51097;51.984;5.650;2023-06-14T14:00:33;40.30;41.40
44823;DHT22;51097;51.984;5.650;2023-06-14T14:02:59;40.10;40.30
44823;DHT22;51097;51.984;5.650;2023-06-14T14:05:25;40.00;40.60
44823;DHT22;51097;51.984;5.650;2023-06-14T14:07:55;39.80;40.60
44823;DHT22;51097;51.984;5.650;2023-06-14T14:10:20;39.70;40.80
44823;DHT22;51097;51.984;5.650;2023-06-14T14:12:46;39.80;41.10
44823;DHT22;51097;51.984;5.650;2023-06-14T14:15:12;39.70;41.30
44823;DHT22;51097;51.984;5.650;2023-06-14T14:17:40;39.60;40.90
44823;DHT22;51097;51.984;5.650;2023-06-14T14:20:06;39.60;40.70
44823;DHT22;51097;51.984;5.650;2023-06-14T14:22:32;39.70;41.70
44823;DHT22;51097;51.984;5.650;2023-06-14T14:24:58;39.80;41.40
44823;DHT22;51097;51.984;5.650;2023-06-14T14:27:23;39.90;41.50
44823;DHT22;51097;51.984;5.650;2023-06-14T14:29:49;40.10;41.50
44823;DHT22;51097;51.984;5.650;2023-06-14T14:32:14;40.40;41.50
44823;DHT22;51097;51.984;5.650;2023-06-14T14:34:40;40.50;40.80
44823;DHT22;51097;51.984;5.650;2023-06-14T14:37:06;40.70;40.80
44823;DHT22;51097;51.984;5.650;2023-06-14T14:39:31;40.80;40.80
44823;DHT22;51097;51.984;5.650;2023-06-14T14:41:57;40.90;40.80
44823;DHT22;51097;51.984;5.650;2023-06-14T14:44:23;41.20;40.80
44823;DHT22;51097;51.984;5.650;2023-06-14T14:46:48;41.40;40.80
44823;DHT22;51097;51.984;5.650;2023-06-14T14:49:14;41.50;39.90
44823;DHT22;51097;51.984;5.650;2023-06-14T14:51:39;41.50;41.10
44823;DHT22;51097;51.984;5.650;2023-06-14T14:54:05;41.40;40.30
44823;DHT22;51097;51.984;5.650;2023-06-14T14:56:32;41.30;40.50
44823;DHT22;51097;51.984;5.650;2023-06-14T14:58:57;41.30;40.00
44823;DHT22;51097;51.984;5.650;2023-06-14T15:01:23;41.20;40.80
44823;DHT22;51097;51.984;5.650;2023-06-14T15:03:48;41.20;41.10
44823;DHT22;51097;51.984;5.650;2023-06-14T15:06:14;41.10;40.20
44823;DHT22;51097;51.984;5.650;2023-06-14T15:08:39;41.20;40.80
44823;DHT22;51097;51.984;5.650;2023-06-14T15:11:05;41.20;40.20
44823;DHT22;51097;51.984;5.650;2023-06-14T15:13:32;41.10;39.50
44823;DHT22;51097;51.984;5.650;2023-06-14T15:15:58;40.80;39.20
44823;DHT22;51097;51.984;5.650;2023-06-14T15:18:24;40.80;40.70
44823;DHT22;51097;51.984;5.650;2023-06-14T15:20:50;40.80;40.50
44823;DHT22;51097;51.984;5.650;2023-06-14T15:23:15;40.80;39.60
44823;DHT22;51097;51.984;5.650;2023-06-14T15:25:45;40.80;39.10
44823;DHT22;51097;51.984;5.650;2023-06-14T15:28:12;40.60;39.20
44823;DHT22;51097;51.984;5.650;2023-06-14T15:30:38;40.50;39.90
44823;DHT22;51097;51.984;5.650;2023-06-14T15:33:03;40.40;40.00
44823;DHT22;51097;51.984;5.650;2023-06-14T15:35:29;40.50;40.60
44823;DHT22;51097;51.984;5.650;2023-06-14T15:37:55;40.60;40.40
44823;DHT22;51097;51.984;5.650;2023-06-14T15:40:20;40.90;40.70
44823;DHT22;51097;51.984;5.650;2023-06-14T15:42:46;40.70;40.50
44823;DHT22;51097;51.984;5.650;2023-06-14T15:45:11;40.80;40.50
44823;DHT22;51097;51.984;5.650;2023-06-14T15:47:37;40.90;40.30